createdAt,value
2017-12-15T00:00:17.316Z,986.49
2017-12-15T00:01:17.306Z,986.56
2017-12-15T00:02:17.301Z,986.53
2017-12-15T00:03:17.281Z,986.55
2017-12-15T00:04:17.268Z,986.56
2017-12-15T00:05:17.256Z,986.54
2017-12-15T00:06:17.243Z,986.60
2017-12-15T00:07:17.230Z,986.56
2017-12-15T00:08:17.218Z,986.59
2017-12-15T00:09:17.201Z,986.59
2017-12-15T00:10:17.188Z,986.59
2017-12-15T00:11:17.175Z,986.62
2017-12-15T00:12:17.163Z,986.62
2017-12-15T00:13:17.150Z,986.62
2017-12-15T00:14:17.139Z,986.65
2017-12-15T00:15:17.124Z,986.59
2017-12-15T00:16:17.111Z,986.57
2017-12-15T00:17:17.102Z,986.59
2017-12-15T00:18:17.090Z,986.65
2017-12-15T00:19:17.078Z,986.68
2017-12-15T00:20:17.065Z,986.60
2017-12-15T00:21:17.052Z,986.66
2017-12-15T00:22:17.039Z,986.61
2017-12-15T00:23:17.028Z,986.56
2017-12-15T00:24:17.015Z,986.61
2017-12-15T00:25:16.997Z,986.59
2017-12-15T00:26:16.984Z,986.60
2017-12-15T00:27:16.971Z,986.55
2017-12-15T00:28:16.965Z,986.57
2017-12-15T00:29:16.947Z,986.62
2017-12-15T00:30:16.934Z,986.59
2017-12-15T00:31:16.921Z,986.56
2017-12-15T00:32:16.909Z,986.57
2017-12-15T00:33:16.899Z,986.63
2017-12-15T00:34:16.887Z,986.61
2017-12-15T00:35:16.873Z,986.66
2017-12-15T00:36:16.861Z,986.64
2017-12-15T00:37:16.847Z,986.64
2017-12-15T00:38:16.837Z,986.68
2017-12-15T00:39:16.823Z,986.67
2017-12-15T00:40:16.812Z,986.68
2017-12-15T00:41:16.794Z,986.69
2017-12-15T00:42:16.782Z,986.68
2017-12-15T00:43:16.768Z,986.69
2017-12-15T00:44:16.755Z,986.70
2017-12-15T00:45:16.744Z,986.69
2017-12-15T00:46:16.730Z,986.64
2017-12-15T00:47:16.718Z,986.66
2017-12-15T00:48:16.706Z,986.70
2017-12-15T00:49:16.697Z,986.65
2017-12-15T00:50:16.683Z,986.62
2017-12-15T00:51:16.672Z,986.73
2017-12-15T00:52:16.660Z,986.71
2017-12-15T00:53:16.642Z,986.69
2017-12-15T00:54:16.628Z,986.76
2017-12-15T00:55:16.617Z,986.72
2017-12-15T00:56:16.604Z,986.72
2017-12-15T00:57:16.595Z,986.68
2017-12-15T00:58:16.583Z,986.71
2017-12-15T00:59:16.570Z,986.73
2017-12-15T01:00:16.558Z,986.77
2017-12-15T01:01:16.543Z,986.80
2017-12-15T01:02:16.530Z,986.81
2017-12-15T01:03:16.519Z,986.79
2017-12-15T01:04:16.507Z,986.81
2017-12-15T01:05:16.488Z,986.85
2017-12-15T01:06:16.477Z,986.81
2017-12-15T01:07:16.465Z,986.79
2017-12-15T01:08:16.452Z,986.81
2017-12-15T01:09:16.441Z,986.86
2017-12-15T01:10:16.425Z,986.80
2017-12-15T01:11:16.413Z,986.83
2017-12-15T01:12:16.401Z,986.84
2017-12-15T01:13:16.392Z,986.83
2017-12-15T01:14:16.380Z,986.90
2017-12-15T01:15:16.366Z,986.92
2017-12-15T01:16:16.354Z,986.96
2017-12-15T01:17:16.341Z,986.94
2017-12-15T01:18:16.329Z,986.92
2017-12-15T01:19:16.317Z,987.02
2017-12-15T01:20:16.305Z,987.04
2017-12-15T01:21:16.287Z,987.00
2017-12-15T01:22:16.275Z,986.98
2017-12-15T01:23:16.263Z,987.07
2017-12-15T01:24:16.249Z,987.04
2017-12-15T01:25:16.237Z,987.05
2017-12-15T01:26:16.225Z,987.14
2017-12-15T01:27:16.212Z,987.09
2017-12-15T01:28:16.199Z,987.06
2017-12-15T01:29:16.190Z,987.11
2017-12-15T01:30:16.179Z,987.08
2017-12-15T01:31:16.165Z,986.99
2017-12-15T01:32:16.153Z,987.11
2017-12-15T01:33:16.140Z,987.12
2017-12-15T01:34:16.127Z,987.16
2017-12-15T01:35:16.116Z,987.13
2017-12-15T01:36:16.103Z,987.10
2017-12-15T01:37:16.086Z,987.18
2017-12-15T01:38:16.074Z,987.16
2017-12-15T01:39:16.062Z,987.24
2017-12-15T01:40:16.049Z,987.22
2017-12-15T01:41:16.034Z,987.21
2017-12-15T01:42:16.023Z,987.27
2017-12-15T01:43:16.010Z,987.25
2017-12-15T01:44:16.002Z,987.30
2017-12-15T01:45:15.990Z,987.31
2017-12-15T01:46:15.976Z,987.29
2017-12-15T01:47:15.966Z,987.27
2017-12-15T01:48:15.953Z,987.35
2017-12-15T01:49:15.939Z,987.33
2017-12-15T01:50:15.927Z,987.32
2017-12-15T01:51:15.914Z,987.31
2017-12-15T01:52:15.902Z,987.31
2017-12-15T01:53:15.884Z,987.33
2017-12-15T01:54:15.871Z,987.34
2017-12-15T01:55:15.859Z,987.34
2017-12-15T01:56:15.848Z,987.41
2017-12-15T01:57:15.838Z,987.46
2017-12-15T01:58:15.826Z,987.53
2017-12-15T01:59:15.831Z,987.56
2017-12-15T02:00:15.802Z,987.54
2017-12-15T02:01:15.782Z,987.62
2017-12-15T02:02:15.772Z,987.59
2017-12-15T02:03:15.758Z,987.58
2017-12-15T02:04:15.746Z,987.60
2017-12-15T02:05:15.734Z,987.63
2017-12-15T02:06:15.719Z,987.68
2017-12-15T02:07:15.709Z,987.66
2017-12-15T02:08:15.696Z,987.70
2017-12-15T02:09:15.687Z,987.72
2017-12-15T02:10:15.674Z,987.70
2017-12-15T02:11:15.662Z,987.74
2017-12-15T02:12:15.651Z,987.74
2017-12-15T02:13:15.638Z,987.73
2017-12-15T02:14:15.624Z,987.69
2017-12-15T02:15:15.612Z,987.79
2017-12-15T02:16:15.600Z,987.84
2017-12-15T02:17:15.583Z,987.80
2017-12-15T02:18:15.577Z,987.87
2017-12-15T02:19:15.557Z,987.84
2017-12-15T02:20:15.546Z,987.95
2017-12-15T02:21:15.532Z,987.94
2017-12-15T02:22:15.523Z,987.93
2017-12-15T02:23:15.507Z,987.93
2017-12-15T02:24:15.494Z,987.98
2017-12-15T02:25:15.485Z,988.02
2017-12-15T02:26:15.474Z,988.02
2017-12-15T02:27:15.460Z,987.99
2017-12-15T02:28:15.448Z,988.01
2017-12-15T02:29:15.436Z,988.04
2017-12-15T02:30:15.423Z,988.07
2017-12-15T02:31:15.412Z,988.05
2017-12-15T02:32:15.401Z,988.01
2017-12-15T02:33:15.381Z,988.08
2017-12-15T02:34:15.369Z,988.05
2017-12-15T02:35:15.357Z,988.11
2017-12-15T02:36:15.345Z,988.07
2017-12-15T02:37:15.329Z,988.07
2017-12-15T02:38:15.318Z,988.09
2017-12-15T02:39:15.306Z,988.16
2017-12-15T02:40:15.294Z,988.14
2017-12-15T02:41:15.284Z,988.14
2017-12-15T02:42:15.274Z,988.16
2017-12-15T02:43:15.260Z,988.18
2017-12-15T02:44:15.247Z,988.19
2017-12-15T02:45:15.234Z,988.22
2017-12-15T02:46:15.222Z,988.19
2017-12-15T02:47:15.210Z,988.24
2017-12-15T02:48:15.197Z,988.22
2017-12-15T02:49:15.178Z,988.23
2017-12-15T02:50:15.166Z,988.24
2017-12-15T02:51:15.155Z,988.24
2017-12-15T02:52:15.141Z,988.32
2017-12-15T02:53:15.128Z,988.27
2017-12-15T02:54:15.117Z,988.36
2017-12-15T02:55:15.104Z,988.39
2017-12-15T02:56:15.091Z,988.36
2017-12-15T02:57:15.082Z,988.38
2017-12-15T02:58:15.071Z,988.41
2017-12-15T02:59:15.057Z,988.40
2017-12-15T03:00:15.044Z,988.41
2017-12-15T03:01:15.032Z,988.42
2017-12-15T03:02:15.020Z,988.41
2017-12-15T03:03:15.007Z,988.41
2017-12-15T03:04:14.994Z,988.45
2017-12-15T03:05:14.977Z,988.46
2017-12-15T03:06:14.970Z,988.44
2017-12-15T03:07:14.952Z,988.43
2017-12-15T03:08:14.940Z,988.46
2017-12-15T03:09:14.925Z,988.45
2017-12-15T03:10:14.914Z,988.48
2017-12-15T03:11:14.901Z,988.50
2017-12-15T03:12:14.888Z,988.54
2017-12-15T03:13:14.878Z,988.52
2017-12-15T03:14:14.866Z,988.56
2017-12-15T03:15:14.854Z,988.53
2017-12-15T03:16:14.841Z,988.56
2017-12-15T03:17:14.829Z,988.53
2017-12-15T03:18:14.816Z,988.54
2017-12-15T03:19:14.803Z,988.52
2017-12-15T03:20:14.791Z,988.54
2017-12-15T03:21:14.773Z,988.54
2017-12-15T03:22:14.760Z,988.59
2017-12-15T03:23:14.747Z,988.52
2017-12-15T03:24:14.736Z,988.53
2017-12-15T03:25:14.721Z,988.54
2017-12-15T03:26:14.708Z,988.56
2017-12-15T03:27:14.697Z,988.53
2017-12-15T03:28:14.684Z,988.55
2017-12-15T03:29:14.675Z,988.58
2017-12-15T03:30:14.664Z,988.59
2017-12-15T03:31:14.655Z,988.57
2017-12-15T03:32:14.639Z,988.67
2017-12-15T03:33:14.623Z,988.68
2017-12-15T03:34:14.611Z,988.63
2017-12-15T03:35:14.599Z,988.60
2017-12-15T03:36:14.587Z,988.61
2017-12-15T03:37:14.569Z,988.61
2017-12-15T03:38:14.555Z,988.63
2017-12-15T03:39:14.544Z,988.61
2017-12-15T03:40:14.531Z,988.62
2017-12-15T03:41:14.519Z,988.58
2017-12-15T03:42:14.505Z,988.61
2017-12-15T03:43:14.492Z,988.58
2017-12-15T03:44:14.480Z,988.55
2017-12-15T03:45:14.471Z,988.57
2017-12-15T03:46:14.458Z,988.52
2017-12-15T03:47:14.446Z,988.56
2017-12-15T03:48:14.433Z,988.54
2017-12-15T03:49:14.419Z,988.53
2017-12-15T03:50:14.406Z,988.53
2017-12-15T03:51:14.395Z,988.55
2017-12-15T03:52:14.382Z,988.51
2017-12-15T03:53:14.363Z,988.52
2017-12-15T03:54:14.351Z,988.50
2017-12-15T03:55:14.337Z,988.49
2017-12-15T03:56:14.325Z,988.49
2017-12-15T03:57:14.313Z,988.53
2017-12-15T03:58:14.299Z,988.58
2017-12-15T03:59:14.287Z,988.49
2017-12-15T04:00:14.274Z,988.49
2017-12-15T04:01:14.265Z,988.49
2017-12-15T04:02:14.252Z,988.52
2017-12-15T04:03:14.240Z,988.52
2017-12-15T04:04:14.229Z,988.50
2017-12-15T04:05:14.210Z,988.55
2017-12-15T04:06:14.197Z,988.59
2017-12-15T04:07:14.185Z,988.57
2017-12-15T04:08:14.172Z,988.58
2017-12-15T04:09:14.165Z,988.59
2017-12-15T04:10:14.151Z,988.59
2017-12-15T04:11:14.135Z,988.62
2017-12-15T04:12:14.124Z,988.60
2017-12-15T04:13:14.111Z,988.62
2017-12-15T04:14:14.100Z,988.62
2017-12-15T04:15:14.087Z,988.65
2017-12-15T04:16:14.074Z,988.63
2017-12-15T04:17:14.056Z,988.64
2017-12-15T04:18:14.044Z,988.65
2017-12-15T04:19:14.032Z,988.67
2017-12-15T04:20:14.019Z,988.70
2017-12-15T04:21:14.004Z,988.65
2017-12-15T04:22:13.992Z,988.71
2017-12-15T04:23:13.982Z,988.69
2017-12-15T04:24:13.970Z,988.76
2017-12-15T04:25:13.959Z,988.73
2017-12-15T04:26:13.945Z,988.72
2017-12-15T04:27:13.933Z,988.73
2017-12-15T04:28:13.920Z,988.75
2017-12-15T04:29:13.908Z,988.69
2017-12-15T04:30:13.895Z,988.72
2017-12-15T04:31:13.882Z,988.71
2017-12-15T04:32:13.869Z,988.74
2017-12-15T04:33:13.851Z,988.74
2017-12-15T04:34:13.839Z,988.76
2017-12-15T04:35:13.827Z,988.68
2017-12-15T04:36:13.814Z,988.76
2017-12-15T04:37:13.800Z,988.74
2017-12-15T04:38:13.788Z,988.77
2017-12-15T04:39:13.774Z,988.79
2017-12-15T04:40:13.762Z,988.79
2017-12-15T04:41:13.754Z,988.83
2017-12-15T04:42:13.742Z,988.80
2017-12-15T04:43:13.728Z,988.81
2017-12-15T04:44:13.716Z,988.84
2017-12-15T04:45:13.703Z,988.85
2017-12-15T04:46:13.689Z,988.83
2017-12-15T04:47:13.678Z,988.85
2017-12-15T04:48:13.665Z,988.85
2017-12-15T04:49:13.648Z,988.89
2017-12-15T04:50:13.635Z,988.84
2017-12-15T04:51:13.624Z,988.89
2017-12-15T04:52:13.611Z,988.86
2017-12-15T04:53:13.596Z,988.85
2017-12-15T04:54:13.584Z,988.86
2017-12-15T04:55:13.572Z,988.86
2017-12-15T04:56:13.559Z,988.82
2017-12-15T04:57:13.551Z,988.87
2017-12-15T04:58:13.538Z,988.90
2017-12-15T04:59:13.527Z,988.91
2017-12-15T05:00:13.517Z,988.90
2017-12-15T05:01:13.501Z,988.83
2017-12-15T05:02:13.487Z,988.92
2017-12-15T05:03:13.480Z,988.92
2017-12-15T05:04:13.463Z,988.95
2017-12-15T05:05:13.446Z,988.91
2017-12-15T05:06:13.434Z,988.93
2017-12-15T05:07:13.421Z,988.96
2017-12-15T05:08:13.410Z,988.93
2017-12-15T05:09:13.399Z,988.95
2017-12-15T05:10:13.386Z,988.98
2017-12-15T05:11:13.376Z,988.93
2017-12-15T05:12:13.365Z,988.93
2017-12-15T05:13:13.345Z,988.97
2017-12-15T05:14:13.333Z,988.97
2017-12-15T05:15:13.321Z,988.97
2017-12-15T05:16:13.307Z,988.95
2017-12-15T05:17:13.295Z,988.98
2017-12-15T05:18:13.282Z,988.99
2017-12-15T05:19:13.271Z,988.96
2017-12-15T05:20:13.266Z,988.94
2017-12-15T05:21:13.249Z,988.94
2017-12-15T05:22:13.237Z,989.02
2017-12-15T05:23:13.225Z,989.01
2017-12-15T05:24:13.212Z,989.00
2017-12-15T05:25:13.199Z,989.00
2017-12-15T05:26:13.186Z,989.01
2017-12-15T05:27:13.174Z,988.96
2017-12-15T05:28:13.163Z,989.05
2017-12-15T05:29:13.144Z,989.01
2017-12-15T05:30:13.133Z,989.08
2017-12-15T05:31:13.120Z,989.03
2017-12-15T05:32:13.109Z,989.06
2017-12-15T05:33:13.095Z,989.06
2017-12-15T05:34:13.083Z,989.04
2017-12-15T05:35:13.071Z,989.03
2017-12-15T05:36:13.057Z,989.08
2017-12-15T05:37:13.050Z,989.04
2017-12-15T05:38:13.036Z,989.09
2017-12-15T05:39:13.024Z,989.07
2017-12-15T05:40:13.018Z,989.05
2017-12-15T05:41:12.999Z,989.07
2017-12-15T05:42:12.988Z,989.14
2017-12-15T05:43:12.973Z,989.11
2017-12-15T05:44:12.963Z,989.15
2017-12-15T05:45:12.946Z,989.14
2017-12-15T05:46:12.933Z,989.14
2017-12-15T05:47:12.920Z,989.13
2017-12-15T05:48:12.908Z,989.09
2017-12-15T05:49:12.895Z,989.13
2017-12-15T05:50:12.882Z,989.17
2017-12-15T05:51:12.869Z,989.17
2017-12-15T05:52:12.858Z,989.19
2017-12-15T05:53:12.856Z,989.13
2017-12-15T05:54:12.837Z,989.15
2017-12-15T05:55:12.825Z,989.16
2017-12-15T05:56:12.812Z,989.20
2017-12-15T05:57:12.799Z,989.17
2017-12-15T05:58:12.787Z,989.14
2017-12-15T05:59:12.774Z,989.18
2017-12-15T06:00:12.762Z,989.22
2017-12-15T06:01:12.744Z,989.19
2017-12-15T06:02:12.732Z,989.18
2017-12-15T06:03:12.720Z,989.19
2017-12-15T06:04:12.707Z,989.19
2017-12-15T06:05:12.695Z,989.21
2017-12-15T06:06:12.681Z,989.21
2017-12-15T06:07:12.670Z,989.24
2017-12-15T06:08:12.657Z,989.21
2017-12-15T06:09:12.649Z,989.25
2017-12-15T06:10:12.636Z,989.23
2017-12-15T06:11:12.624Z,989.27
2017-12-15T06:12:12.612Z,989.34
2017-12-15T06:13:12.596Z,989.32
2017-12-15T06:14:12.581Z,989.29
2017-12-15T06:15:12.568Z,989.37
2017-12-15T06:16:12.558Z,989.33
2017-12-15T06:17:12.549Z,989.32
2017-12-15T06:18:12.537Z,989.32
2017-12-15T06:19:12.523Z,989.33
2017-12-15T06:20:12.512Z,989.30
2017-12-15T06:21:12.499Z,989.31
2017-12-15T06:22:12.485Z,989.34
2017-12-15T06:23:12.474Z,989.31
2017-12-15T06:24:12.461Z,989.30
2017-12-15T06:25:12.445Z,989.32
2017-12-15T06:26:12.440Z,989.31
2017-12-15T06:27:12.418Z,989.33
2017-12-15T06:28:12.406Z,989.29
2017-12-15T06:29:12.394Z,989.34
2017-12-15T06:30:12.382Z,989.34
2017-12-15T06:31:12.368Z,989.33
2017-12-15T06:32:12.356Z,989.34
2017-12-15T06:33:12.348Z,989.42
2017-12-15T06:34:12.335Z,989.37
2017-12-15T06:35:12.324Z,989.36
2017-12-15T06:36:12.310Z,989.40
2017-12-15T06:37:12.297Z,989.42
2017-12-15T06:38:12.297Z,989.37
2017-12-15T06:39:12.275Z,989.39
2017-12-15T06:40:12.261Z,989.38
2017-12-15T06:41:12.244Z,989.39
2017-12-15T06:42:12.231Z,989.45
2017-12-15T06:43:12.218Z,989.48
2017-12-15T06:44:12.209Z,989.43
2017-12-15T06:45:12.192Z,989.47
2017-12-15T06:46:12.180Z,989.46
2017-12-15T06:47:12.172Z,989.42
2017-12-15T06:48:12.156Z,989.48
2017-12-15T06:49:12.149Z,989.54
2017-12-15T06:50:12.135Z,989.57
2017-12-15T06:51:12.123Z,989.57
2017-12-15T06:52:12.111Z,989.55
2017-12-15T06:53:12.098Z,989.65
2017-12-15T06:54:12.086Z,989.62
2017-12-15T06:55:12.073Z,989.67
2017-12-15T06:56:12.061Z,989.67
2017-12-15T06:57:12.043Z,989.68
2017-12-15T06:58:12.030Z,989.60
2017-12-15T06:59:12.019Z,989.67
2017-12-15T07:00:12.007Z,989.62
2017-12-15T07:01:11.993Z,989.62
2017-12-15T07:02:11.981Z,989.62
2017-12-15T07:03:11.968Z,989.65
2017-12-15T07:04:11.955Z,989.68
2017-12-15T07:05:11.947Z,989.63
2017-12-15T07:06:11.936Z,989.64
2017-12-15T07:07:11.924Z,989.70
2017-12-15T07:08:11.911Z,989.63
2017-12-15T07:09:11.898Z,989.63
2017-12-15T07:10:11.885Z,989.63
2017-12-15T07:11:11.873Z,989.65
2017-12-15T07:12:11.861Z,989.61
2017-12-15T07:13:11.844Z,989.67
2017-12-15T07:14:11.831Z,989.68
2017-12-15T07:15:11.820Z,989.67
2017-12-15T07:16:11.807Z,989.64
2017-12-15T07:17:11.798Z,989.65
2017-12-15T07:18:11.786Z,989.64
2017-12-15T07:19:11.774Z,989.68
2017-12-15T07:20:11.765Z,989.66
2017-12-15T07:21:11.743Z,989.63
2017-12-15T07:22:11.732Z,989.62
2017-12-15T07:23:11.719Z,989.61
2017-12-15T07:24:11.708Z,989.64
2017-12-15T07:25:11.693Z,989.65
2017-12-15T07:26:11.682Z,989.65
2017-12-15T07:27:11.669Z,989.65
2017-12-15T07:28:11.657Z,989.73
2017-12-15T07:29:11.648Z,989.67
2017-12-15T07:30:11.636Z,989.73
2017-12-15T07:31:11.624Z,989.72
2017-12-15T07:32:11.612Z,989.79
2017-12-15T07:33:11.599Z,989.79
2017-12-15T07:34:11.586Z,989.82
2017-12-15T07:35:11.575Z,989.85
2017-12-15T07:36:11.562Z,989.80
2017-12-15T07:37:11.549Z,989.76
2017-12-15T07:38:11.533Z,989.72
2017-12-15T07:39:11.519Z,989.78
2017-12-15T07:40:11.507Z,989.77
2017-12-15T07:41:11.495Z,989.74
2017-12-15T07:42:11.484Z,989.77
2017-12-15T07:43:11.471Z,989.75
2017-12-15T07:44:11.461Z,989.77
2017-12-15T07:45:11.461Z,989.80
2017-12-15T07:46:11.438Z,989.72
2017-12-15T07:47:11.431Z,989.77
2017-12-15T07:48:11.414Z,989.71
2017-12-15T07:49:11.399Z,989.76
2017-12-15T07:50:11.388Z,989.77
2017-12-15T07:51:11.387Z,989.74
2017-12-15T07:52:11.364Z,989.77
2017-12-15T07:53:11.346Z,989.73
2017-12-15T07:54:11.334Z,989.80
2017-12-15T07:55:11.322Z,989.75
2017-12-15T07:56:11.310Z,989.79
2017-12-15T07:57:11.296Z,989.82
2017-12-15T07:58:11.284Z,989.83
2017-12-15T07:59:11.273Z,989.79
2017-12-15T08:00:11.260Z,989.87
2017-12-15T08:01:11.252Z,989.83
2017-12-15T08:02:11.239Z,989.88
2017-12-15T08:03:11.227Z,989.87
2017-12-15T08:04:11.214Z,989.87
2017-12-15T08:05:11.202Z,989.85
2017-12-15T08:06:11.190Z,989.86
2017-12-15T08:07:11.177Z,989.88
2017-12-15T08:08:11.165Z,989.88
2017-12-15T08:09:11.149Z,989.94
2017-12-15T08:10:11.144Z,989.92
2017-12-15T08:11:11.123Z,990.00
2017-12-15T08:12:11.111Z,989.94
2017-12-15T08:13:11.099Z,990.03
2017-12-15T08:14:11.086Z,990.02
2017-12-15T08:15:11.075Z,990.05
2017-12-15T08:16:11.061Z,990.03
2017-12-15T08:17:11.054Z,990.05
2017-12-15T08:18:11.041Z,990.04
2017-12-15T08:19:11.032Z,990.05
2017-12-15T08:20:11.016Z,990.05
2017-12-15T08:21:10.999Z,990.08
2017-12-15T08:22:10.988Z,990.04
2017-12-15T08:23:10.975Z,990.12
2017-12-15T08:24:10.963Z,990.01
2017-12-15T08:25:10.952Z,990.06
2017-12-15T08:26:10.941Z,990.06
2017-12-15T08:27:10.929Z,990.07
2017-12-15T08:28:10.916Z,990.07
2017-12-15T08:29:10.903Z,990.06
2017-12-15T08:30:10.890Z,990.06
2017-12-15T08:31:10.879Z,990.06
2017-12-15T08:32:10.867Z,990.09
2017-12-15T08:33:10.849Z,990.11
2017-12-15T08:34:10.841Z,990.07
2017-12-15T08:35:10.824Z,990.10
2017-12-15T08:36:10.813Z,990.12
2017-12-15T08:37:10.799Z,990.18
2017-12-15T08:38:10.786Z,990.18
2017-12-15T08:39:10.774Z,990.18
2017-12-15T08:40:10.761Z,990.18
2017-12-15T08:41:10.753Z,990.19
2017-12-15T08:42:10.745Z,990.22
2017-12-15T08:43:10.728Z,990.24
2017-12-15T08:44:10.715Z,990.18
2017-12-15T08:45:10.703Z,990.22
2017-12-15T08:46:10.690Z,990.26
2017-12-15T08:47:10.680Z,990.20
2017-12-15T08:48:10.667Z,990.28
2017-12-15T08:49:10.649Z,990.24
2017-12-15T08:50:10.637Z,990.28
2017-12-15T08:51:10.625Z,990.31
2017-12-15T08:52:10.613Z,990.29
2017-12-15T08:53:10.600Z,990.33
2017-12-15T08:54:10.587Z,990.35
2017-12-15T08:55:10.575Z,990.39
2017-12-15T08:56:10.563Z,990.36
2017-12-15T08:57:10.553Z,990.38
2017-12-15T08:58:10.542Z,990.40
2017-12-15T08:59:10.534Z,990.41
2017-12-15T09:00:10.518Z,990.44
2017-12-15T09:01:10.505Z,990.51
2017-12-15T09:02:10.496Z,990.46
2017-12-15T09:03:10.480Z,990.56
2017-12-15T09:04:10.468Z,990.52
2017-12-15T09:05:10.449Z,990.54
2017-12-15T09:06:10.438Z,990.60
2017-12-15T09:07:10.427Z,990.58
2017-12-15T09:08:10.413Z,990.58
2017-12-15T09:09:10.402Z,990.64
2017-12-15T09:10:10.388Z,990.63
2017-12-15T09:11:10.377Z,990.69
2017-12-15T09:12:10.366Z,990.64
2017-12-15T09:13:10.356Z,990.70
2017-12-15T09:14:10.345Z,990.69
2017-12-15T09:15:12.544Z,990.75
2017-12-15T09:16:10.321Z,990.68
2017-12-15T09:17:10.307Z,990.73
2017-12-15T09:18:10.296Z,990.72
2017-12-15T09:19:10.283Z,990.78
2017-12-15T09:20:10.272Z,990.74
2017-12-15T09:21:10.255Z,990.76
2017-12-15T09:22:10.245Z,990.80
2017-12-15T09:23:10.231Z,990.70
2017-12-15T09:24:10.253Z,990.72
2017-12-15T09:25:10.209Z,990.79
2017-12-15T09:26:10.198Z,990.78
2017-12-15T09:27:10.186Z,990.79
2017-12-15T09:28:10.215Z,990.80
2017-12-15T09:29:10.157Z,990.80
2017-12-15T09:30:10.145Z,990.80
2017-12-15T09:31:10.134Z,990.80
2017-12-15T09:32:10.122Z,990.83
2017-12-15T09:33:10.109Z,990.84
2017-12-15T09:34:10.097Z,990.84
2017-12-15T09:35:10.086Z,990.89
2017-12-15T09:36:10.072Z,990.92
2017-12-15T09:37:10.068Z,990.89
2017-12-15T09:38:10.053Z,990.89
2017-12-15T09:39:10.042Z,990.90
2017-12-15T09:40:10.030Z,990.95
2017-12-15T09:41:10.017Z,990.90
2017-12-15T09:42:10.006Z,990.93
2017-12-15T09:43:09.994Z,990.93
2017-12-15T09:44:09.981Z,990.92
2017-12-15T09:45:09.965Z,990.92
2017-12-15T09:46:09.953Z,990.96
2017-12-15T09:47:09.942Z,991.02
2017-12-15T09:48:09.931Z,991.03
2017-12-15T09:49:09.918Z,991.05
2017-12-15T09:50:09.907Z,991.05
2017-12-15T09:51:09.896Z,991.04
2017-12-15T09:52:09.927Z,991.04
2017-12-15T09:53:09.875Z,991.04
2017-12-15T09:54:09.867Z,991.07
2017-12-15T09:55:09.853Z,991.10
2017-12-15T09:56:09.843Z,991.12
2017-12-15T09:57:09.830Z,991.13
2017-12-15T09:58:09.819Z,991.11
2017-12-15T09:59:09.811Z,991.15
2017-12-15T10:00:09.799Z,991.19
2017-12-15T10:01:09.782Z,991.20
2017-12-15T10:02:09.772Z,991.23
2017-12-15T10:03:09.761Z,991.32
2017-12-15T10:04:09.750Z,991.29
2017-12-15T10:05:09.739Z,991.31
2017-12-15T10:06:09.728Z,991.25
2017-12-15T10:15:00.994Z,991.19
2017-12-15T10:16:00.981Z,991.24
2017-12-15T10:17:00.966Z,991.21
2017-12-15T10:18:00.948Z,991.22
2017-12-15T10:19:00.966Z,991.21
2017-12-15T10:20:00.922Z,991.24
2017-12-15T10:21:00.911Z,991.25
2017-12-15T10:22:00.899Z,991.28
2017-12-15T10:23:00.888Z,991.31
2017-12-15T10:24:00.875Z,991.30
2017-12-15T10:25:00.865Z,991.31
2017-12-15T10:26:00.856Z,991.32
2017-12-15T10:27:00.847Z,991.36
2017-12-15T10:28:00.842Z,991.28
2017-12-15T10:29:00.829Z,991.33
2017-12-15T10:30:00.868Z,991.30
2017-12-15T10:31:00.811Z,991.33
2017-12-15T10:32:00.796Z,991.37
2017-12-15T10:33:00.801Z,991.36
2017-12-15T10:34:00.767Z,991.35
2017-12-15T10:35:00.765Z,991.36
2017-12-15T10:36:00.748Z,991.36
2017-12-15T10:37:00.738Z,991.36
2017-12-15T10:38:00.725Z,991.36
2017-12-15T10:39:00.716Z,991.35
2017-12-15T10:40:00.707Z,991.34
2017-12-15T10:41:00.695Z,991.33
2017-12-15T10:42:00.689Z,991.38
2017-12-15T10:43:00.679Z,991.37
2017-12-15T10:44:00.671Z,991.41
2017-12-15T10:45:00.659Z,991.34
2017-12-15T10:46:00.647Z,991.40
2017-12-15T10:47:00.639Z,991.38
2017-12-15T10:48:00.628Z,991.43
2017-12-15T10:49:00.618Z,991.40
2017-12-15T10:50:00.601Z,991.47
2017-12-15T10:51:00.592Z,991.41
2017-12-15T10:52:00.582Z,991.42
2017-12-15T10:53:00.572Z,991.46
2017-12-15T10:54:00.561Z,991.44
2017-12-15T10:55:00.551Z,991.43
2017-12-15T10:56:00.541Z,991.45
2017-12-15T10:57:00.530Z,991.43
2017-12-15T10:58:00.522Z,991.42
2017-12-15T10:59:00.515Z,991.46
2017-12-15T11:00:00.502Z,991.46
2017-12-15T11:01:00.497Z,991.43
2017-12-15T11:02:00.481Z,991.49
2017-12-15T11:03:00.471Z,991.44
2017-12-15T11:04:00.461Z,991.48
2017-12-15T11:05:00.450Z,991.45
2017-12-15T11:06:00.436Z,991.44
2017-12-15T11:07:00.427Z,991.43
2017-12-15T11:08:00.415Z,991.42
2017-12-15T11:09:00.404Z,991.43
2017-12-15T11:10:00.394Z,991.45
2017-12-15T11:11:00.401Z,991.44
2017-12-15T11:12:00.373Z,991.47
2017-12-15T11:13:00.362Z,991.47
2017-12-15T11:14:00.356Z,991.47
2017-12-15T11:15:00.345Z,991.44
2017-12-15T11:16:00.335Z,991.46
2017-12-15T11:17:00.325Z,991.45
2017-12-15T11:18:00.309Z,991.51
2017-12-15T11:19:00.298Z,991.57
2017-12-15T11:20:00.288Z,991.46
2017-12-15T11:21:00.278Z,991.50
2017-12-15T11:22:00.271Z,991.47
2017-12-15T11:23:00.259Z,991.50
2017-12-15T11:24:00.250Z,991.51
2017-12-15T11:25:00.240Z,991.53
2017-12-15T11:26:00.228Z,991.60
2017-12-15T11:27:00.218Z,991.53
2017-12-15T11:28:00.208Z,991.59
2017-12-15T11:29:00.196Z,991.58
2017-12-15T11:30:00.182Z,991.60
2017-12-15T11:31:00.171Z,991.56
2017-12-15T11:32:00.161Z,991.59
2017-12-15T11:33:00.151Z,991.58
2017-12-15T11:34:00.139Z,991.61
2017-12-15T11:35:00.129Z,991.60
2017-12-15T11:36:00.119Z,991.59
2017-12-15T11:37:00.108Z,991.62
2017-12-15T11:38:00.101Z,991.63
2017-12-15T11:39:00.092Z,991.60
2017-12-15T11:40:00.081Z,991.58
2017-12-15T11:41:00.070Z,991.57
2017-12-15T11:42:00.059Z,991.60
2017-12-15T11:43:00.049Z,991.61
2017-12-15T11:44:00.039Z,991.61
2017-12-15T11:45:00.028Z,991.66
2017-12-15T11:46:00.013Z,991.62
2017-12-15T11:47:00.003Z,991.65
2017-12-15T11:47:59.992Z,991.66
2017-12-15T11:48:59.983Z,991.66
2017-12-15T11:49:59.970Z,991.73
2017-12-15T11:50:59.961Z,991.71
2017-12-15T11:51:59.950Z,991.68
2017-12-15T11:52:59.940Z,991.69
2017-12-15T11:53:59.933Z,991.70
2017-12-15T11:54:59.923Z,991.64
2017-12-15T11:55:59.913Z,991.67
2017-12-15T11:56:59.903Z,991.71
2017-12-15T11:57:59.891Z,991.69
2017-12-15T11:58:59.884Z,991.69
2017-12-15T11:59:59.871Z,991.67
2017-12-15T12:00:59.862Z,991.67
2017-12-15T12:01:59.847Z,991.70
2017-12-15T12:02:59.836Z,991.65
2017-12-15T12:03:59.828Z,991.67
2017-12-15T12:04:59.816Z,991.69
2017-12-15T12:05:59.808Z,991.69
2017-12-15T12:06:59.796Z,991.69
2017-12-15T12:07:59.787Z,991.68
2017-12-15T12:08:59.778Z,991.64
2017-12-15T12:09:59.770Z,991.67
2017-12-15T12:10:59.761Z,991.72
2017-12-15T12:11:59.751Z,991.63
2017-12-15T12:12:59.740Z,991.70
2017-12-15T12:13:59.730Z,991.67
2017-12-15T12:14:59.722Z,991.68
2017-12-15T12:15:59.711Z,991.76
2017-12-15T12:16:59.700Z,991.77
2017-12-15T12:17:59.686Z,991.77
2017-12-15T12:18:59.675Z,991.81
2017-12-15T12:19:59.667Z,991.76
2017-12-15T12:20:59.657Z,991.75
2017-12-15T12:21:59.650Z,991.76
2017-12-15T12:22:59.639Z,991.78
2017-12-15T12:23:59.631Z,991.74
2017-12-15T12:24:59.619Z,991.71
2017-12-15T12:25:59.605Z,991.70
2017-12-15T12:26:59.596Z,991.72
2017-12-15T12:27:59.586Z,991.72
2017-12-15T12:28:59.576Z,991.71
2017-12-15T12:29:59.569Z,991.72
2017-12-15T12:30:59.554Z,991.76
2017-12-15T12:31:59.545Z,991.82
2017-12-15T12:32:59.539Z,991.77
2017-12-15T12:33:59.528Z,991.81
2017-12-15T12:34:59.525Z,991.85
2017-12-15T12:35:59.509Z,991.79